Time;durP1;ratioP1;P1;durP2;ratioP2;P2;SDS_P1;SDS_P2;PMS_P1;PMS_P2;Temp;Humidity;BMP_temperature;BMP_pressure;BME280_temperature;BME280_humidity;BME280_pressure;Samples;Min_cycle;Max_cycle;Signal;HPM_P1;HPM_P2
2022/05/21 00:01:53;;;;;;;4.90;4.50;;;24.30;57.50;;;;;;5071952;28;20421;-45
2022/05/21 00:04:19;;;;;;;5.57;4.10;;;24.30;57.50;;;;;;5071887;28;20553;-47
2022/05/21 00:06:45;;;;;;;3.70;3.40;;;24.10;57.50;;;;;;5071804;28;20188;-45
2022/05/21 00:09:10;;;;;;;3.67;3.37;;;23.80;57.90;;;;;;5072324;28;20721;-47
2022/05/21 00:11:38;;;;;;;5.23;3.30;;;23.80;58.00;;;;;;5072152;28;20221;-45
2022/05/21 00:14:05;;;;;;;4.17;3.77;;;23.70;57.80;;;;;;5072439;28;20200;-46
2022/05/21 00:16:30;;;;;;;4.00;3.60;;;23.50;58.10;;;;;;5071700;28;20565;-45
2022/05/21 00:18:56;;;;;;;6.37;3.90;;;23.30;58.40;;;;;;5071809;28;20510;-48
2022/05/21 00:21:23;;;;;;;3.67;3.37;;;23.20;58.50;;;;;;5072030;28;20223;-45
2022/05/21 00:23:50;;;;;;;4.23;3.80;;;23.10;58.70;;;;;;5071125;28;20554;-46
2022/05/21 00:26:16;;;;;;;3.27;2.97;;;22.80;59.60;;;;;;5070072;28;20442;-48
2022/05/21 00:28:44;;;;;;;3.30;3.00;;;22.70;59.50;;;;;;5071521;28;20422;-47
2022/05/21 00:31:14;;;;;;;4.03;3.17;;;22.90;58.90;;;;;;5071485;28;20506;-43
2022/05/21 00:33:41;;;;;;;4.07;3.20;;;22.90;58.80;;;;;;5072141;28;20521;-45
2022/05/21 00:36:07;;;;;;;3.57;3.30;;;22.50;59.10;;;;;;5071279;28;20977;-47
2022/05/21 00:38:34;;;;;;;3.30;3.07;;;22.60;59.60;;;;;;5071761;28;20794;-45
2022/05/21 00:41:00;;;;;;;3.40;3.10;;;22.80;59.40;;;;;;5071269;28;20529;-43
2022/05/21 00:43:45;;;;;;;4.70;3.40;;;22.80;59.10;;;;;;5072035;28;20509;-43
2022/05/21 00:46:20;;;;;;;3.77;3.13;;;22.70;59.10;;;;;;5070954;28;20434;-43
2022/05/21 00:48:55;;;;;;;3.47;3.17;;;22.60;59.70;;;;;;5071589;28;20497;-43
2022/05/21 00:51:25;;;;;;;3.63;3.43;;;22.60;60.10;;;;;;5071168;28;20422;-43
2022/05/21 00:53:54;;;;;;;7.33;3.37;;;22.60;60.10;;;;;;5070137;28;20445;-43
2022/05/21 00:56:22;;;;;;;3.70;3.40;;;22.70;59.60;;;;;;5070813;28;20478;-44
2022/05/21 01:01:41;;;;;;;3.10;2.90;;;22.60;59.90;;;;;;5070929;28;20507;-43
2022/05/21 01:04:07;;;;;;;8.57;3.27;;;22.70;59.60;;;;;;5057569;28;20462;-43
2022/05/21 01:06:34;;;;;;;3.47;3.23;;;22.60;59.40;;;;;;5070891;28;20434;-44
2022/05/21 01:09:00;;;;;;;4.07;3.77;;;22.40;60.40;;;;;;5071133;28;20501;-44
2022/05/21 01:11:26;;;;;;;3.87;3.53;;;22.40;59.90;;;;;;5070763;28;20517;-44
2022/05/21 01:13:52;;;;;;;10.43;3.50;;;22.30;60.20;;;;;;5071070;28;20237;-44
2022/05/21 01:16:18;;;;;;;4.40;3.23;;;22.30;60.00;;;;;;5070499;28;20496;-43
2022/05/21 01:18:44;;;;;;;4.40;4.00;;;22.30;60.10;;;;;;5069253;28;20418;-43
2022/05/21 01:21:10;;;;;;;4.03;3.63;;;22.10;60.40;;;;;;5070644;28;20196;-43
2022/05/21 01:23:36;;;;;;;3.70;3.40;;;21.80;60.00;;;;;;5071021;28;20199;-43
2022/05/21 01:26:05;;;;;;;4.13;3.83;;;21.70;60.90;;;;;;5070250;28;20447;-43
2022/05/21 01:28:33;;;;;;;3.93;3.63;;;21.60;61.00;;;;;;5070404;28;20203;-44
2022/05/21 01:31:01;;;;;;;3.83;3.53;;;21.70;60.30;;;;;;5070335;28;20428;-43
2022/05/21 01:33:33;;;;;;;3.30;3.10;;;21.60;60.00;;;;;;5070690;28;20477;-43
2022/05/21 01:35:59;;;;;;;3.77;3.40;;;21.50;59.70;;;;;;5069735;28;20485;-43
2022/05/21 01:38:26;;;;;;;3.20;2.90;;;21.30;59.80;;;;;;5070368;28;20480;-43
2022/05/21 01:40:53;;;;;;;3.33;3.10;;;21.50;59.70;;;;;;5070100;28;20440;-44
2022/05/21 01:46:03;;;;;;;4.20;3.37;;;21.30;59.10;;;;;;5068471;28;20483;-44
2022/05/21 01:48:31;;;;;;;3.37;3.10;;;21.20;59.30;;;;;;5070279;28;20422;-43
2022/05/21 01:50:57;;;;;;;3.60;3.30;;;21.30;59.30;;;;;;5069754;28;20476;-43
2022/05/21 01:53:24;;;;;;;3.73;2.93;;;21.20;59.20;;;;;;5070569;28;20422;-43
2022/05/21 01:55:50;;;;;;;3.50;3.20;;;21.30;58.80;;;;;;5069878;28;21026;-43
2022/05/21 01:58:16;;;;;;;3.77;3.00;;;21.30;59.10;;;;;;5070186;28;20418;-44
2022/05/21 02:00:43;;;;;;;3.80;3.33;;;21.20;58.90;;;;;;5069814;28;20204;-43
2022/05/21 02:03:10;;;;;;;4.97;3.20;;;21.10;59.20;;;;;;5069623;28;20557;-47
2022/05/21 02:05:36;;;;;;;3.43;3.13;;;21.10;59.10;;;;;;5069846;28;20430;-44
2022/05/21 02:08:03;;;;;;;4.77;2.87;;;20.80;59.10;;;;;;5069903;28;20426;-45
2022/05/21 02:10:28;;;;;;;5.20;3.67;;;20.80;59.50;;;;;;5069570;28;20434;-43
2022/05/21 02:12:54;;;;;;;3.10;2.90;;;20.70;59.70;;;;;;5068681;28;20426;-44
2022/05/21 02:15:20;;;;;;;3.63;3.33;;;20.80;59.40;;;;;;5069545;28;20638;-43
2022/05/21 02:17:45;;;;;;;3.83;3.23;;;20.60;59.20;;;;;;5069666;28;20199;-43
2022/05/21 02:20:11;;;;;;;3.80;2.90;;;20.60;59.00;;;;;;5069493;28;20196;-44
2022/05/21 02:22:37;;;;;;;2.97;2.67;;;20.70;59.30;;;;;;5070222;28;20188;-44
2022/05/21 02:25:07;;;;;;;3.37;3.07;;;20.60;59.30;;;;;;5069370;28;20188;-45
2022/05/21 02:27:33;;;;;;;3.90;3.60;;;20.50;59.50;;;;;;5069471;28;20196;-43
2022/05/21 02:29:59;;;;;;;4.37;3.97;;;20.50;59.50;;;;;;5069549;28;20936;-43
2022/05/21 02:32:24;;;;;;;3.97;3.63;;;20.60;59.60;;;;;;5069945;28;20564;-45
2022/05/21 02:34:50;;;;;;;3.53;3.20;;;20.50;59.20;;;;;;5069986;28;20311;-44
2022/05/21 02:40:00;;;;;;;3.50;3.20;;;20.60;59.10;;;;;;5067952;28;20242;-43
2022/05/21 02:42:43;;;;;;;3.97;3.60;;;20.50;59.20;;;;;;5069763;28;20434;-43
2022/05/21 02:45:20;;;;;;;3.20;2.90;;;20.60;58.80;;;;;;5069554;28;20199;-43
2022/05/21 02:47:47;;;;;;;3.30;3.00;;;20.50;58.80;;;;;;5073150;28;20425;-44
2022/05/21 02:50:15;;;;;;;3.87;3.60;;;20.50;58.80;;;;;;5073485;28;20430;-43
2022/05/21 02:52:41;;;;;;;3.60;3.30;;;20.50;58.90;;;;;;5073912;28;20428;-44
2022/05/21 02:55:08;;;;;;;3.60;3.10;;;20.50;58.50;;;;;;5073031;28;20492;-44
2022/05/21 02:57:34;;;;;;;3.70;3.33;;;20.70;58.40;;;;;;5073172;28;20921;-42
2022/05/21 03:00:16;;;;;;;3.90;3.60;;;20.80;58.10;;;;;;5073165;28;20445;-44
2022/05/21 03:02:41;;;;;;;3.20;3.00;;;21.00;57.60;;;;;;5067245;28;20481;-43
2022/05/21 03:05:08;;;;;;;3.90;3.60;;;20.90;57.60;;;;;;5066116;28;20438;-43
2022/05/21 03:07:38;;;;;;;3.23;2.80;;;20.60;57.90;;;;;;5071313;28;20219;-45
2022/05/21 03:10:21;;;;;;;4.87;4.40;;;20.30;58.10;;;;;;5072992;28;20418;-45
2022/05/21 03:12:52;;;;;;;5.73;4.17;;;19.90;58.60;;;;;;5073417;28;20520;-46
2022/05/21 03:15:19;;;;;;;6.80;4.10;;;19.60;59.30;;;;;;5072725;28;20477;-44
2022/05/21 03:17:46;;;;;;;6.90;3.93;;;19.50;59.20;;;;;;5072081;28;21003;-46
2022/05/21 03:20:13;;;;;;;3.90;3.60;;;19.40;59.50;;;;;;5072961;28;20434;-45
2022/05/21 03:22:40;;;;;;;4.80;4.40;;;19.40;59.60;;;;;;5073160;28;20426;-46
2022/05/21 03:25:07;;;;;;;4.07;3.63;;;19.50;59.40;;;;;;5072768;28;20436;-46
2022/05/21 03:27:32;;;;;;;5.00;4.50;;;19.60;59.10;;;;;;5072730;28;20441;-44
2022/05/21 03:29:58;;;;;;;4.37;3.97;;;19.90;58.90;;;;;;5072686;28;20414;-43
2022/05/21 03:32:23;;;;;;;6.13;5.53;;;19.80;59.00;;;;;;5072734;28;20184;-44
2022/05/21 03:34:49;;;;;;;7.90;4.67;;;19.80;59.00;;;;;;5071484;28;20223;-46
2022/05/21 03:37:14;;;;;;;5.67;5.17;;;19.80;59.10;;;;;;5072319;28;20257;-45
2022/05/21 03:39:40;;;;;;;5.20;4.70;;;19.80;59.00;;;;;;5072980;28;20195;-44
2022/05/21 03:42:06;;;;;;;5.80;5.13;;;19.90;58.80;;;;;;5072460;28;20200;-46
2022/05/21 03:44:31;;;;;;;6.40;5.23;;;20.00;58.50;;;;;;5072810;28;20650;-46
2022/05/21 03:46:58;;;;;;;5.50;5.10;;;20.00;58.20;;;;;;5072129;28;20639;-43
2022/05/21 03:49:25;;;;;;;5.60;5.10;;;19.90;58.60;;;;;;5072823;28;20195;-45
2022/05/21 03:51:50;;;;;;;5.60;5.10;;;19.90;58.70;;;;;;5072267;28;20509;-44
2022/05/21 03:54:16;;;;;;;6.80;6.10;;;19.80;58.60;;;;;;5072406;28;20509;-42
2022/05/21 03:56:41;;;;;;;5.90;5.30;;;19.70;58.90;;;;;;5071774;28;20221;-43
2022/05/21 03:59:07;;;;;;;9.20;5.50;;;19.70;58.80;;;;;;5072630;28;20195;-44
2022/05/21 04:01:32;;;;;;;5.70;5.20;;;19.50;59.10;;;;;;5070378;28;20237;-46
2022/05/21 04:03:58;;;;;;;6.40;5.87;;;19.70;59.00;;;;;;5059286;28;20687;-43
2022/05/21 04:06:25;;;;;;;5.93;5.43;;;19.70;58.80;;;;;;5071552;28;20322;-46
2022/05/21 04:08:52;;;;;;;7.37;5.03;;;19.60;58.80;;;;;;5072535;28;20502;-45
2022/05/21 04:11:18;;;;;;;6.23;5.40;;;19.70;58.70;;;;;;5071728;28;20553;-47
2022/05/21 04:13:43;;;;;;;5.83;5.33;;;19.60;58.50;;;;;;5072306;28;20419;-44
2022/05/21 04:16:09;;;;;;;5.90;5.40;;;19.50;58.70;;;;;;5071719;28;20230;-47
2022/05/21 04:18:35;;;;;;;6.07;4.67;;;19.40;59.00;;;;;;5071614;28;20198;-45
2022/05/21 04:21:00;;;;;;;6.03;4.80;;;19.50;58.90;;;;;;5071723;28;20639;-47
2022/05/21 04:23:26;;;;;;;6.03;5.53;;;19.40;58.90;;;;;;5072168;28;20192;-43
2022/05/21 04:25:52;;;;;;;6.60;6.00;;;19.30;59.20;;;;;;5071880;28;20192;-44
2022/05/21 04:28:17;;;;;;;6.40;5.80;;;19.20;59.60;;;;;;5070132;28;20250;-44
2022/05/21 04:30:43;;;;;;;7.23;5.83;;;19.20;59.60;;;;;;5071314;28;20210;-46
2022/05/21 04:33:09;;;;;;;6.13;5.60;;;19.30;59.40;;;;;;5072097;28;20283;-43
2022/05/21 04:38:19;;;;;;;6.47;5.63;;;19.10;59.60;;;;;;5071443;28;21007;-44
2022/05/21 04:40:44;;;;;;;5.63;5.13;;;19.20;59.60;;;;;;5071684;28;20520;-47
2022/05/21 04:43:10;;;;;;;6.70;4.90;;;19.20;59.50;;;;;;5071929;28;20275;-45
2022/05/21 04:45:36;;;;;;;5.37;4.87;;;19.30;59.10;;;;;;5071270;28;20275;-42
2022/05/21 04:48:03;;;;;;;4.80;4.23;;;19.20;59.00;;;;;;5071170;28;20604;-44
2022/05/21 04:50:29;;;;;;;5.80;5.27;;;19.30;58.70;;;;;;5071143;28;20568;-43
2022/05/21 04:52:55;;;;;;;5.60;5.10;;;19.40;58.20;;;;;;5071402;28;20410;-42
2022/05/21 04:55:20;;;;;;;8.37;4.50;;;19.40;58.00;;;;;;5069530;28;20666;-46
2022/05/21 04:57:46;;;;;;;5.00;4.57;;;19.50;57.50;;;;;;5071180;28;20267;-47
2022/05/21 05:00:12;;;;;;;5.97;4.77;;;19.40;57.80;;;;;;5071104;28;20377;-43
2022/05/21 05:02:37;;;;;;;6.70;4.50;;;19.40;57.60;;;;;;5070975;28;20227;-42
2022/05/21 05:05:05;;;;;;;5.17;4.40;;;19.30;57.80;;;;;;5070797;28;20461;-44
2022/05/21 05:07:30;;;;;;;4.67;4.27;;;19.30;57.80;;;;;;5071030;28;20639;-42
2022/05/21 05:09:56;;;;;;;4.30;4.00;;;19.40;57.30;;;;;;5070967;28;20426;-42
2022/05/21 05:12:21;;;;;;;4.77;3.60;;;19.20;57.20;;;;;;5070891;28;20206;-43
2022/05/21 05:14:47;;;;;;;4.90;4.50;;;19.10;57.80;;;;;;5070984;28;20224;-47
2022/05/21 05:17:13;;;;;;;5.33;4.83;;;19.10;57.90;;;;;;5070364;28;20249;-47
2022/05/21 05:19:39;;;;;;;4.20;3.90;;;19.10;57.60;;;;;;5071221;28;20227;-43
2022/05/21 05:22:09;;;;;;;4.47;3.90;;;19.40;57.50;;;;;;5068954;28;20426;-47
2022/05/21 05:24:38;;;;;;;4.80;4.40;;;19.60;57.00;;;;;;5071058;28;20426;-43
2022/05/21 05:27:04;;;;;;;3.93;3.63;;;19.90;56.70;;;;;;5069976;28;20862;-43
2022/05/21 05:29:30;;;;;;;4.40;4.10;;;20.00;56.10;;;;;;5070940;28;20422;-46
2022/05/21 05:31:55;;;;;;;5.20;3.90;;;20.10;55.90;;;;;;5070485;28;20429;-42
2022/05/21 05:34:21;;;;;;;3.90;3.60;;;20.00;55.10;;;;;;5071051;28;20192;-43
2022/05/21 05:36:47;;;;;;;4.20;3.90;;;20.00;55.20;;;;;;5069752;28;20615;-42
2022/05/21 05:39:13;;;;;;;4.40;4.00;;;20.10;55.10;;;;;;5071030;28;20286;-43
2022/05/21 05:41:39;;;;;;;4.20;3.90;;;20.10;54.70;;;;;;5070225;28;20184;-43
2022/05/21 05:44:05;;;;;;;4.70;4.23;;;20.20;54.60;;;;;;5070942;28;20430;-42
2022/05/21 05:46:31;;;;;;;4.40;4.00;;;20.30;54.30;;;;;;5069525;28;20269;-44
2022/05/21 05:48:57;;;;;;;4.30;3.90;;;20.40;54.30;;;;;;5068707;28;20782;-43
2022/05/21 05:51:22;;;;;;;4.40;4.00;;;20.40;54.10;;;;;;5069976;28;20414;-43
2022/05/21 05:53:49;;;;;;;4.73;4.23;;;20.60;54.20;;;;;;5070564;28;20192;-43
2022/05/21 05:56:15;;;;;;;4.23;3.87;;;20.50;53.30;;;;;;5069246;28;20235;-46
2022/05/21 06:01:25;;;;;;;3.70;3.40;;;20.20;53.00;;;;;;5070152;28;20457;-44
2022/05/21 06:03:52;;;;;;;3.43;3.13;;;20.30;52.70;;;;;;5069920;28;20532;-45
2022/05/21 06:06:18;;;;;;;3.60;3.30;;;20.20;52.30;;;;;;5069509;28;20208;-43
2022/05/21 06:08:44;;;;;;;2.93;2.73;;;20.20;52.10;;;;;;5070384;28;20422;-43
2022/05/21 06:11:11;;;;;;;3.40;3.10;;;20.30;52.10;;;;;;5069711;28;20196;-44
2022/05/21 06:13:37;;;;;;;2.80;2.60;;;20.40;51.40;;;;;;5070321;28;20436;-42
2022/05/21 06:16:03;;;;;;;5.03;2.97;;;20.30;51.70;;;;;;5067747;28;20477;-44
2022/05/21 06:18:29;;;;;;;4.10;2.23;;;20.30;51.70;;;;;;5069754;28;20250;-43
2022/05/21 06:20:59;;;;;;;3.17;2.90;;;20.20;51.70;;;;;;5068617;28;20419;-42
2022/05/21 06:23:24;;;;;;;3.00;2.60;;;20.60;51.90;;;;;;5070162;28;20726;-43
2022/05/21 06:25:50;;;;;;;3.27;2.97;;;20.90;51.40;;;;;;5069793;28;20509;-42
2022/05/21 06:28:16;;;;;;;3.00;2.50;;;21.20;50.20;;;;;;5069506;28;20191;-43
2022/05/21 06:30:43;;;;;;;3.80;2.40;;;21.10;49.30;;;;;;5069672;28;20280;-43
2022/05/21 06:33:26;;;;;;;2.70;2.03;;;21.20;48.80;;;;;;5070074;28;20196;-42
2022/05/21 06:36:05;;;;;;;4.00;2.40;;;21.10;48.70;;;;;;5069645;28;20567;-44
2022/05/21 06:38:32;;;;;;;2.87;2.20;;;21.20;49.30;;;;;;5070047;28;20454;-44
2022/05/21 06:40:57;;;;;;;5.00;2.50;;;21.30;48.50;;;;;;5069468;28;20919;-46
2022/05/21 06:43:23;;;;;;;2.77;2.03;;;21.30;47.20;;;;;;5068401;28;20475;-43
2022/05/21 06:45:49;;;;;;;2.23;2.03;;;21.20;47.90;;;;;;5069396;28;20656;-43
2022/05/21 06:48:14;;;;;;;3.83;2.40;;;21.40;48.30;;;;;;5069788;28;20517;-43
2022/05/21 06:50:40;;;;;;;2.73;1.70;;;21.40;47.90;;;;;;5069089;28;20194;-44
2022/05/21 06:53:06;;;;;;;3.80;2.03;;;21.60;47.50;;;;;;5069470;28;20188;-43
2022/05/21 06:55:32;;;;;;;1.70;1.60;;;21.80;46.90;;;;;;5069017;28;20261;-42
2022/05/21 06:57:58;;;;;;;2.50;2.30;;;21.80;46.10;;;;;;5069289;28;20429;-43
2022/05/21 07:00:24;;;;;;;2.40;2.10;;;21.80;46.40;;;;;;5069145;28;20426;-44
2022/05/21 07:02:51;;;;;;;3.40;1.73;;;21.80;46.60;;;;;;5069201;28;20314;-43
2022/05/21 07:08:03;;;;;;;1.50;1.40;;;21.90;45.30;;;;;;5069378;28;20832;-44
2022/05/21 07:10:29;;;;;;;1.50;1.40;;;21.70;43.20;;;;;;5067499;28;20433;-44
2022/05/21 07:12:56;;;;;;;7.13;1.80;;;21.80;43.20;;;;;;5069611;28;20783;-47
2022/05/21 07:15:22;;;;;;;1.93;1.50;;;22.00;43.30;;;;;;5069131;28;20254;-46
2022/05/21 07:17:48;;;;;;;6.40;2.60;;;22.20;44.60;;;;;;5069231;28;20422;-46
2022/05/21 07:20:18;;;;;;;3.53;1.63;;;22.50;44.40;;;;;;5069188;28;20433;-48
2022/05/21 07:22:45;;;;;;;2.33;1.73;;;22.70;43.30;;;;;;5069787;28;20430;-47
2022/05/21 07:25:13;;;;;;;5.60;1.50;;;22.50;42.80;;;;;;5069042;28;20449;-45
2022/05/21 07:27:40;;;;;;;4.07;1.70;;;22.60;43.50;;;;;;5069184;28;20503;-44
2022/05/21 07:30:07;;;;;;;4.77;1.90;;;22.60;44.20;;;;;;5067570;28;20442;-48
2022/05/21 07:32:32;;;;;;;1.87;1.57;;;22.80;44.30;;;;;;5070717;28;20791;-43
2022/05/21 07:34:59;;;;;;;2.50;1.43;;;23.10;44.30;;;;;;5072820;28;20469;-47
2022/05/21 07:37:25;;;;;;;2.30;1.40;;;23.20;43.30;;;;;;5071021;28;20191;-45
2022/05/21 07:39:51;;;;;;;2.90;1.73;;;23.50;43.10;;;;;;5073099;28;21094;-47
2022/05/21 07:42:16;;;;;;;2.13;1.43;;;23.30;41.70;;;;;;5072756;28;20708;-47
2022/05/21 07:44:42;;;;;;;2.60;1.53;;;23.40;42.00;;;;;;5073169;28;20638;-46
2022/05/21 07:47:08;;;;;;;1.80;1.70;;;23.60;42.20;;;;;;5071907;28;20195;-45
2022/05/21 07:49:33;;;;;;;1.30;1.20;;;23.90;43.40;;;;;;5072748;28;20630;-46
2022/05/21 07:51:59;;;;;;;2.27;1.70;;;23.90;42.30;;;;;;5071115;28;20564;-44
2022/05/21 07:54:28;;;;;;;2.00;1.80;;;24.00;41.70;;;;;;5072850;28;20216;-44
2022/05/21 07:56:54;;;;;;;1.40;1.30;;;24.10;43.20;;;;;;5071922;28;20211;-43
2022/05/21 07:59:20;;;;;;;1.37;1.27;;;24.30;43.10;;;;;;5072618;28;20835;-47
2022/05/21 08:01:46;;;;;;;1.40;1.00;;;24.50;42.60;;;;;;5072376;28;20184;-46
2022/05/21 08:04:12;;;;;;;1.80;1.50;;;24.60;41.20;;;;;;5070694;28;20466;-45
2022/05/21 08:06:38;;;;;;;2.03;1.40;;;24.40;41.70;;;;;;5071765;28;20425;-44
2022/05/21 08:09:03;;;;;;;1.70;1.40;;;24.40;41.50;;;;;;5072110;28;20245;-47
2022/05/21 08:11:29;;;;;;;4.20;1.50;;;24.50;41.20;;;;;;5071955;28;20690;-46
2022/05/21 08:13:55;;;;;;;2.47;1.57;;;24.60;41.50;;;;;;5072346;28;20265;-45
2022/05/21 08:16:21;;;;;;;1.80;1.10;;;24.80;41.70;;;;;;5071535;28;20223;-43
2022/05/21 08:18:47;;;;;;;1.30;1.00;;;25.00;40.50;;;;;;5072437;28;20547;-43
2022/05/21 08:21:13;;;;;;;1.80;1.30;;;25.00;39.80;;;;;;5071702;28;20525;-45
2022/05/21 08:29:07;;;;;;;1.57;1.20;;;25.10;39.70;;;;;;5071090;28;20491;-45
2022/05/21 08:31:32;;;;;;;3.30;1.40;;;25.40;39.40;;;;;;5070804;28;20905;-44
2022/05/21 08:33:58;;;;;;;2.33;1.33;;;25.60;39.60;;;;;;5072120;28;20249;-47
2022/05/21 08:36:24;;;;;;;1.57;1.10;;;25.80;38.60;;;;;;5071084;28;20227;-43
2022/05/21 08:38:49;;;;;;;1.40;1.20;;;25.90;39.20;;;;;;5072114;28;20192;-43
2022/05/21 08:41:24;;;;;;;2.73;1.20;;;26.10;38.30;;;;;;5071512;28;20279;-44
2022/05/21 08:44:04;;;;;;;1.30;1.20;;;26.10;37.10;;;;;;5070960;28;20295;-47
2022/05/21 08:46:48;;;;;;;1.30;1.20;;;26.30;37.90;;;;;;5070746;28;20434;-45
2022/05/21 08:49:30;;;;;;;1.23;1.00;;;26.30;37.60;;;;;;5071808;28;20433;-47
2022/05/21 08:51:58;;;;;;;1.20;1.00;;;26.40;38.00;;;;;;5071181;28;20434;-44
2022/05/21 08:54:32;;;;;;;1.90;0.90;;;26.50;37.70;;;;;;5071672;28;20426;-43
2022/05/21 08:56:58;;;;;;;0.97;0.97;;;26.80;37.70;;;;;;5068966;28;20804;-48
2022/05/21 08:59:29;;;;;;;1.43;1.03;;;26.80;37.10;;;;;;5071185;28;20414;-44
2022/05/21 09:01:54;;;;;;;2.43;1.03;;;26.90;36.50;;;;;;5070923;28;20199;-46
2022/05/21 09:04:23;;;;;;;1.13;1.07;;;26.80;35.40;;;;;;5071331;28;20895;-43
2022/05/21 09:06:58;;;;;;;2.40;1.10;;;26.90;36.90;;;;;;5070713;28;20279;-43
2022/05/21 09:09:52;;;;;;;1.20;1.03;;;27.00;36.40;;;;;;5071219;28;20437;-43
2022/05/21 09:12:48;;;;;;;1.20;1.10;;;27.10;36.50;;;;;;5070639;28;20445;-44
2022/05/21 09:16:54;;;;;;;1.10;1.00;;;27.30;35.50;;;;;;5070593;28;20474;-44
2022/05/21 09:18:08;;;;;;;1.03;0.83;;;27.40;35.80;;;;;;5070686;28;20934;-44
2022/05/21 09:20:52;;;;;;;3.47;1.30;;;27.50;36.40;;;;;;5070363;28;20425;-44
2022/05/21 09:23:17;;;;;;;2.70;1.17;;;27.40;35.60;;;;;;5069495;28;20429;-43
2022/05/21 09:25:43;;;;;;;1.37;1.27;;;27.60;36.40;;;;;;5070576;28;20426;-46
2022/05/21 09:28:11;;;;;;;1.80;1.10;;;27.80;35.70;;;;;;5070503;28;20180;-43
2022/05/21 09:30:53;;;;;;;2.07;1.30;;;27.80;35.50;;;;;;5070348;28;20204;-45
2022/05/21 09:33:33;;;;;;;3.17;1.03;;;28.00;35.80;;;;;;5070865;28;20422;-43
2022/05/21 09:35:59;;;;;;;1.63;1.27;;;28.20;36.40;;;;;;5069891;28;21060;-44
2022/05/21 09:38:26;;;;;;;1.13;1.03;;;28.40;34.50;;;;;;5070775;28;20426;-43
2022/05/21 09:41:18;;;;;;;1.80;1.70;;;28.50;34.10;;;;;;5070443;28;20434;-46
2022/05/21 09:46:42;;;;;;;1.10;1.00;;;28.30;34.70;;;;;;5069932;28;20472;-47
2022/05/21 09:49:22;;;;;;;2.60;1.37;;;28.40;34.80;;;;;;5070510;28;20485;-44
2022/05/21 09:51:58;;;;;;;2.70;1.30;;;28.70;35.00;;;;;;5068383;28;20426;-47
2022/05/21 09:54:27;;;;;;;2.87;1.00;;;28.90;34.10;;;;;;5067690;28;20993;-47
2022/05/21 09:56:55;;;;;;;4.00;1.00;;;29.20;35.00;;;;;;5069389;28;20469;-44
2022/05/21 09:59:27;;;;;;;1.23;1.13;;;29.30;36.00;;;;;;5070545;28;20415;-44
2022/05/21 10:02:01;;;;;;;1.47;1.30;;;29.30;35.60;;;;;;5069680;28;20525;-44
2022/05/21 10:04:45;;;;;;;1.63;1.30;;;29.50;34.10;;;;;;5057411;28;20477;-45
2022/05/21 10:13:08;;;;;;;1.60;1.17;;;29.60;32.40;;;;;;5070589;28;20476;-46
2022/05/21 10:15:42;;;;;;;3.17;1.20;;;29.40;33.20;;;;;;5069409;28;20500;-48
2022/05/21 10:18:41;;;;;;;1.83;1.27;;;29.40;32.60;;;;;;5068516;28;20437;-46
2022/05/21 10:21:42;;;;;;;1.20;1.10;;;29.60;32.90;;;;;;5069878;28;20466;-47
2022/05/21 10:24:16;;;;;;;1.20;1.10;;;29.80;32.60;;;;;;5070245;28;20476;-44
2022/05/21 10:26:55;;;;;;;1.43;1.17;;;29.90;31.90;;;;;;5069251;28;20476;-44
2022/05/21 10:29:50;;;;;;;1.43;1.30;;;30.10;33.10;;;;;;5069974;28;20426;-45
2022/05/21 10:32:43;;;;;;;3.47;1.10;;;30.30;32.60;;;;;;5069420;28;20430;-44
2022/05/21 10:35:34;;;;;;;2.40;1.10;;;30.30;32.60;;;;;;5069325;28;20505;-44
2022/05/21 10:38:14;;;;;;;1.83;1.03;;;30.40;31.30;;;;;;5069650;28;20525;-47
2022/05/21 10:41:01;;;;;;;2.00;1.60;;;30.60;31.80;;;;;;5069746;28;20473;-48
2022/05/21 10:43:45;;;;;;;1.47;1.00;;;30.70;30.40;;;;;;5068618;28;20456;-48
2022/05/21 10:46:20;;;;;;;1.33;1.23;;;30.60;32.40;;;;;;5068882;28;20505;-48
2022/05/21 10:48:45;;;;;;;0.73;0.73;;;30.80;32.50;;;;;;5069754;28;20793;-45
2022/05/21 10:51:29;;;;;;;1.47;1.17;;;31.00;31.90;;;;;;5069105;28;20438;-45
2022/05/21 10:54:33;;;;;;;1.47;1.00;;;31.20;32.10;;;;;;5069444;28;20292;-43
2022/05/21 10:57:35;;;;;;;1.17;1.10;;;31.30;30.50;;;;;;5068629;28;20441;-48
2022/05/21 11:00:09;;;;;;;1.33;1.10;;;31.40;30.20;;;;;;5069275;28;20499;-44
2022/05/21 11:02:54;;;;;;;1.97;1.23;;;31.40;29.60;;;;;;5069496;28;20433;-46
2022/05/21 11:06:07;;;;;;;3.13;1.40;;;31.30;30.60;;;;;;5069280;28;20426;-47
2022/05/21 11:08:51;;;;;;;5.70;1.53;;;31.40;31.00;;;;;;4996451;28;21006;-45
2022/05/21 11:11:42;;;;;;;4.63;1.20;;;31.20;30.90;;;;;;4989826;28;20445;-45
2022/05/21 11:14:19;;;;;;;2.20;1.20;;;31.10;31.00;;;;;;5048932;28;20442;-45
2022/05/21 11:16:55;;;;;;;1.73;1.23;;;31.10;31.00;;;;;;5072599;28;20489;-47
2022/05/21 11:19:51;;;;;;;1.40;1.10;;;31.20;30.00;;;;;;5073433;28;20426;-46
2022/05/21 11:22:41;;;;;;;1.90;1.17;;;31.10;30.80;;;;;;5073119;28;20627;-45
2022/05/21 11:25:33;;;;;;;2.50;1.73;;;31.10;30.30;;;;;;5072044;28;20442;-46
2022/05/21 11:28:34;;;;;;;1.83;1.43;;;31.20;30.60;;;;;;5073230;28;20434;-48
2022/05/21 11:31:06;;;;;;;2.90;1.50;;;31.50;30.30;;;;;;5061744;28;20506;-45
2022/05/21 11:39:10;;;;;;;1.60;1.10;;;31.60;31.40;;;;;;5071796;28;20430;-44
2022/05/21 11:41:54;;;;;;;2.00;1.60;;;31.70;31.00;;;;;;5072650;28;20472;-44
2022/05/21 11:47:18;;;;;;;2.57;1.40;;;31.50;29.30;;;;;;5072308;28;20567;-46
2022/05/21 11:50:07;;;;;;;1.57;1.10;;;31.50;29.20;;;;;;5072838;28;20490;-44
2022/05/21 11:52:35;;;;;;;2.63;1.10;;;31.60;29.00;;;;;;5072823;28;20426;-45
2022/05/21 11:55:09;;;;;;;3.83;1.10;;;31.70;29.80;;;;;;5072691;28;20465;-44
2022/05/21 11:57:42;;;;;;;5.90;1.30;;;31.70;30.30;;;;;;5072296;28;20494;-46
2022/05/21 12:00:17;;;;;;;3.03;1.33;;;31.80;30.30;;;;;;5072261;28;20465;-44
2022/05/21 12:02:56;;;;;;;4.87;1.10;;;31.70;30.50;;;;;;5072236;28;20481;-45
2022/05/21 12:05:46;;;;;;;2.60;1.10;;;31.90;29.90;;;;;;5070490;28;20449;-44
2022/05/21 12:08:35;;;;;;;1.20;1.10;;;32.00;28.90;;;;;;5072797;28;20821;-45
2022/05/21 12:11:10;;;;;;;1.33;1.00;;;31.80;28.60;;;;;;5072130;28;20472;-45
2022/05/21 12:13:36;;;;;;;3.80;1.27;;;31.80;29.60;;;;;;5072478;28;20807;-44
2022/05/21 12:16:16;;;;;;;1.60;1.30;;;31.80;29.40;;;;;;5071195;28;20493;-44
2022/05/21 12:18:49;;;;;;;3.00;1.27;;;31.80;28.90;;;;;;5071247;28;20211;-44
2022/05/21 12:21:30;;;;;;;3.40;1.53;;;31.90;29.70;;;;;;5072116;28;20556;-44
2022/05/21 12:23:58;;;;;;;2.53;1.60;;;31.90;30.40;;;;;;5072325;28;20438;-44
2022/05/21 12:26:30;;;;;;;1.57;1.20;;;31.90;31.00;;;;;;5071114;28;20664;-44
2022/05/21 12:28:55;;;;;;;4.43;1.70;;;32.00;29.60;;;;;;5072443;28;20795;-48
2022/05/21 12:31:24;;;;;;;2.60;1.70;;;31.70;29.60;;;;;;5069739;28;20434;-44
2022/05/21 12:33:50;;;;;;;2.57;1.40;;;31.60;29.40;;;;;;5072144;28;20623;-44
2022/05/21 12:36:35;;;;;;;3.80;1.20;;;31.60;29.70;;;;;;5070865;28;20481;-44
2022/05/21 12:39:03;;;;;;;2.23;1.43;;;31.60;29.90;;;;;;5072015;28;20199;-44
2022/05/21 12:41:39;;;;;;;2.60;1.40;;;31.40;29.70;;;;;;5071298;28;20431;-44
2022/05/21 12:44:05;;;;;;;2.50;1.53;;;31.40;29.70;;;;;;5071972;28;20502;-44
2022/05/21 12:46:35;;;;;;;2.93;1.33;;;31.30;30.10;;;;;;5070861;28;20422;-45
2022/05/21 12:49:04;;;;;;;2.20;1.20;;;31.20;30.00;;;;;;5071424;28;20765;-46
2022/05/21 12:51:49;;;;;;;2.20;1.20;;;31.20;29.70;;;;;;5071236;28;20437;-44
2022/05/21 12:54:27;;;;;;;1.97;1.30;;;31.20;29.50;;;;;;5071696;28;20490;-45
2022/05/21 12:56:55;;;;;;;2.30;1.20;;;31.40;30.60;;;;;;5070474;28;20492;-45
2022/05/21 12:59:27;;;;;;;2.20;2.00;;;31.60;29.60;;;;;;5069744;28;20458;-45
2022/05/21 13:02:14;;;;;;;3.63;2.00;;;31.80;29.90;;;;;;5070847;28;20438;-44
2022/05/21 13:04:42;;;;;;;1.43;1.13;;;31.80;29.40;;;;;;5060125;28;20833;-44
2022/05/21 13:07:33;;;;;;;1.53;1.30;;;31.70;29.10;;;;;;5070335;28;20799;-44
2022/05/21 13:10:26;;;;;;;4.70;1.33;;;31.40;29.10;;;;;;5071112;28;20429;-44
2022/05/21 13:12:57;;;;;;;2.50;1.30;;;31.30;29.50;;;;;;5071312;28;20441;-44
2022/05/21 13:15:27;;;;;;;2.27;1.83;;;31.60;29.50;;;;;;5070385;28;20815;-44
2022/05/21 13:18:23;;;;;;;3.53;1.60;;;31.80;29.40;;;;;;5070934;28;20794;-44
2022/05/21 13:20:58;;;;;;;1.93;1.50;;;31.70;28.30;;;;;;5070743;28;20427;-45
2022/05/21 13:23:51;;;;;;;1.93;1.30;;;31.80;29.40;;;;;;5071234;28;20430;-44
2022/05/21 13:26:29;;;;;;;4.07;1.57;;;31.50;29.20;;;;;;5068674;28;20933;-45
2022/05/21 13:29:16;;;;;;;2.33;1.10;;;31.30;29.50;;;;;;5070612;28;21029;-45
2022/05/21 13:31:42;;;;;;;1.40;1.20;;;31.30;31.00;;;;;;5069839;28;20433;-45
2022/05/21 13:34:12;;;;;;;3.43;1.70;;;31.40;30.40;;;;;;5070992;28;20815;-44
2022/05/21 13:36:38;;;;;;;2.23;1.27;;;31.30;29.50;;;;;;5069741;28;20482;-44
2022/05/21 13:39:05;;;;;;;2.03;1.53;;;31.40;29.80;;;;;;5070565;28;20418;-44
2022/05/21 13:41:39;;;;;;;2.37;1.20;;;31.40;31.00;;;;;;5070301;28;20196;-44
2022/05/21 13:44:13;;;;;;;1.40;1.20;;;31.50;30.00;;;;;;5070746;28;20509;-44
2022/05/21 13:46:40;;;;;;;3.63;1.60;;;31.10;29.30;;;;;;5069929;28;20457;-44